PGUM/GUM METAR and TAF weather

Enter ICAO airport designator
Station Type Date Time Source
PGUM METAR 2022/06/26 06:54 UTC NOAA

PGUM 260654Z 09012KT 10SM -RA FEW023 SCT048 SCT075 28/25 A2982 RMK AO2 RAB01E13B44 SLP088 P0002 T02780250 $


Station Type Date Time Source
PGUM Decoded METAR 2022/06/26 06:54 UTC NOAA

Agana, Guam International Airport, GU, United States (PGUM) 13-29N 144-48E
Jun 26, 2022 - 02:54 AM EDT / 2022.06.26 0654 UTC
Wind: from the E (090 degrees) at 14 MPH (12 KT):0
Visibility: 10 mile(s):0
Sky conditions: partly cloudy
Weather: light rain
Precipitation last hour: 0.02 inches
Temperature: 82.0 F (27.8 C)
Dew Point: 77.0 F (25.0 C)
Relative Humidity: 84%
Pressure (altimeter): 29.82 in. Hg (1009 hPa)
ob: PGUM 260654Z 09012KT 10SM -RA FEW023 SCT048 SCT075 28/25 A2982 RMK AO2 RAB01E13B44 SLP088 P0002 T02780250
cycle: 7

Station Type Date Time Source
PGUM TAF 2022/06/26 06:48 UTC NOAA

TAF PGUM 260544Z 2606/2712 09015G25KT P6SM VCSH SCT020 SCT030 BKN120
FM260800 08011KT P6SM VCSH FEW018 SCT035 SCT050

Example: see airport list